createdAt,value
2018-02-15T00:00:41.982Z,99959.48
2018-02-15T00:03:09.598Z,99965.02
2018-02-15T00:05:37.189Z,99962.92
2018-02-15T00:08:04.759Z,99965.26
2018-02-15T00:10:32.447Z,99968.71
2018-02-15T00:13:00.072Z,99964.89
2018-02-15T00:15:27.640Z,99964.25
2018-02-15T00:17:55.210Z,99976.11
2018-02-15T00:20:22.835Z,99975.06
2018-02-15T00:22:50.439Z,99972.73
2018-02-15T00:25:18.065Z,99975.50
2018-02-15T00:27:45.630Z,99971.66
2018-02-15T00:30:13.255Z,99966.17
2018-02-15T00:32:40.800Z,99974.89
2018-02-15T00:35:08.466Z,99966.77
2018-02-15T00:37:36.195Z,99963.23
2018-02-15T00:40:03.757Z,99971.78
2018-02-15T00:42:31.326Z,99970.73
2018-02-15T00:44:58.882Z,99969.90
2018-02-15T00:47:26.502Z,99963.70
2018-02-15T00:49:54.067Z,99963.40
2018-02-15T00:52:21.634Z,99961.82
2018-02-15T00:54:49.197Z,99963.87
2018-02-15T00:57:16.814Z,99963.82
2018-02-15T00:59:44.490Z,99965.90
2018-02-15T01:02:12.060Z,99960.80
2018-02-15T01:04:39.679Z,99965.48
2018-02-15T01:07:07.312Z,99967.09
2018-02-15T01:09:34.899Z,99961.92
2018-02-15T01:12:02.546Z,99965.38
2018-02-15T01:14:30.088Z,99969.95
2018-02-15T01:16:57.697Z,99974.16
2018-02-15T01:19:25.309Z,99967.73
2018-02-15T01:21:52.941Z,99973.29
2018-02-15T01:24:20.506Z,99977.55
2018-02-15T01:26:48.122Z,99976.12
2018-02-15T01:29:15.687Z,99970.03
2018-02-15T01:31:43.242Z,99976.05
2018-02-15T01:34:10.862Z,99977.39
2018-02-15T01:36:38.422Z,99976.34
2018-02-15T01:39:05.996Z,99980.80
2018-02-15T01:41:33.585Z,99980.13
2018-02-15T01:44:01.142Z,99984.47
2018-02-15T01:46:28.767Z,99983.17
2018-02-15T01:48:56.343Z,99984.91
2018-02-15T01:51:23.936Z,99983.66
2018-02-15T01:53:51.483Z,99987.44
2018-02-15T01:56:19.099Z,99993.36
2018-02-15T01:58:46.730Z,100000.58
2018-02-15T02:01:14.290Z,100000.56
2018-02-15T02:03:41.909Z,99993.53
2018-02-15T02:06:09.469Z,99998.66
2018-02-15T02:08:37.096Z,99998.11
2018-02-15T02:11:04.655Z,99997.12
2018-02-15T02:13:32.209Z,99994.37
2018-02-15T02:15:59.773Z,99999.78
2018-02-15T02:18:27.421Z,100002.44
2018-02-15T02:20:54.987Z,99999.38
2018-02-15T02:23:22.546Z,99999.98
2018-02-15T02:25:50.158Z,100001.05
2018-02-15T02:28:17.728Z,100011.80
2018-02-15T02:30:45.295Z,100007.63
2018-02-15T02:33:12.922Z,100017.80
2018-02-15T02:35:40.486Z,100018.96
2018-02-15T02:38:08.053Z,100020.94
2018-02-15T02:40:35.622Z,100021.96
2018-02-15T02:43:03.248Z,100021.82
2018-02-15T02:45:30.819Z,100028.82
2018-02-15T02:47:58.387Z,100029.84
2018-02-15T02:50:26.036Z,100034.23
2018-02-15T02:52:53.667Z,100042.44
2018-02-15T02:55:21.230Z,100042.46
2018-02-15T02:57:48.793Z,100054.14
2018-02-15T03:00:16.428Z,100061.58
2018-02-15T03:02:44.058Z,100059.64
2018-02-15T03:05:11.639Z,100062.14
2018-02-15T03:07:39.282Z,100073.07
2018-02-15T03:10:06.915Z,100071.37
2018-02-15T03:12:34.495Z,100081.11
2018-02-15T03:15:02.084Z,100084.28
2018-02-15T03:17:29.919Z,100092.71
2018-02-15T03:19:57.482Z,100091.13
2018-02-15T03:22:25.851Z,100093.52
2018-02-15T03:24:53.437Z,100099.81
2018-02-15T03:27:21.067Z,100102.83
2018-02-15T03:29:48.687Z,100098.75
2018-02-15T03:32:16.310Z,100096.68
2018-02-15T03:34:43.991Z,100100.75
2018-02-15T03:37:11.563Z,100104.59
2018-02-15T03:39:39.126Z,100108.95
2018-02-15T03:42:06.773Z,100105.72
2018-02-15T03:44:34.398Z,100108.95
2018-02-15T03:47:02.031Z,100110.56
2018-02-15T03:49:29.654Z,100109.66
2018-02-15T03:51:57.324Z,100111.17
2018-02-15T03:54:24.894Z,100116.73
2018-02-15T03:56:52.458Z,100125.14
2018-02-15T03:59:20.038Z,100112.76
2018-02-15T04:01:47.671Z,100123.14
2018-02-15T04:04:15.322Z,100121.92
2018-02-15T04:06:42.892Z,100126.62
2018-02-15T04:09:10.516Z,100138.48
2018-02-15T04:11:38.086Z,100132.67
2018-02-15T04:14:05.650Z,100127.38
2018-02-15T04:16:33.219Z,100130.53
2018-02-15T04:19:00.849Z,100142.23
2018-02-15T04:21:28.424Z,100144.80
2018-02-15T04:23:56.074Z,100152.78
2018-02-15T04:26:23.756Z,100154.01
2018-02-15T04:28:51.324Z,100163.19
2018-02-15T04:31:18.912Z,100162.35
2018-02-15T04:33:46.546Z,100163.05
2018-02-15T04:36:14.187Z,100163.20
2018-02-15T04:38:41.764Z,100169.39
2018-02-15T04:41:09.386Z,100171.33
2018-02-15T04:43:37.003Z,100173.84
2018-02-15T04:46:04.569Z,100171.11
2018-02-15T04:48:32.133Z,100174.00
2018-02-15T04:50:59.719Z,100173.20
2018-02-15T04:53:27.297Z,100175.94
2018-02-15T04:55:54.878Z,100182.27
2018-02-15T04:58:22.464Z,100180.17
2018-02-15T05:00:50.107Z,100185.94
2018-02-15T05:03:17.688Z,100191.84
2018-02-15T05:05:45.323Z,100201.51
2018-02-15T05:08:12.911Z,100201.93
2018-02-15T05:10:40.556Z,100205.56
2018-02-15T05:13:08.137Z,100214.58
2018-02-15T05:15:35.689Z,100215.43
2018-02-15T05:18:03.328Z,100223.16
2018-02-15T05:20:30.905Z,100224.19
2018-02-15T05:22:58.534Z,100227.54
2018-02-15T05:25:26.133Z,100235.95
2018-02-15T05:27:53.694Z,100243.73
2018-02-15T05:30:21.276Z,100244.31
2018-02-15T05:32:48.823Z,100252.05
2018-02-15T05:35:16.445Z,100252.91
2018-02-15T05:37:44.071Z,100267.73
2018-02-15T05:40:11.641Z,100262.81
2018-02-15T05:42:39.227Z,100269.70
2018-02-15T05:45:06.855Z,100265.99
2018-02-15T05:47:34.442Z,100269.27
2018-02-15T05:50:02.010Z,100275.98
2018-02-15T05:52:29.634Z,100273.66
2018-02-15T05:54:57.206Z,100273.57
2018-02-15T05:57:24.778Z,100261.20
2018-02-15T05:59:52.406Z,100272.38
2018-02-15T06:02:19.966Z,100265.52
2018-02-15T06:04:47.534Z,100262.03
2018-02-15T06:07:15.104Z,100264.00
2018-02-15T06:09:42.722Z,100267.41
2018-02-15T06:12:10.289Z,100270.98
2018-02-15T06:14:37.887Z,100274.94
2018-02-15T06:17:05.460Z,100273.89
2018-02-15T06:19:33.029Z,100276.44
2018-02-15T06:22:00.604Z,100277.16
2018-02-15T06:24:28.198Z,100284.16
2018-02-15T06:26:55.824Z,100287.27
2018-02-15T06:29:23.395Z,100287.83
2018-02-15T06:31:51.023Z,100288.20
2018-02-15T06:34:18.598Z,100285.20
2018-02-15T06:36:46.202Z,100285.80
2018-02-15T06:39:13.789Z,100282.34
2018-02-15T06:41:41.361Z,100281.06
2018-02-15T06:44:08.983Z,100285.00
2018-02-15T06:46:36.607Z,100287.45
2018-02-15T06:49:04.183Z,100292.21
2018-02-15T06:51:31.753Z,100288.22
2018-02-15T06:53:59.379Z,100291.66
2018-02-15T06:56:26.964Z,100284.80
2018-02-15T06:58:54.526Z,100281.33
2018-02-15T07:01:22.203Z,100287.00
2018-02-15T07:03:49.832Z,100285.69
2018-02-15T07:06:17.390Z,100292.58
2018-02-15T07:08:44.965Z,100288.34
2018-02-15T07:11:12.557Z,100292.85
2018-02-15T07:13:40.204Z,100304.84
2018-02-15T07:16:07.770Z,100299.06
2018-02-15T07:18:35.392Z,100303.27
2018-02-15T07:21:03.027Z,100301.84
2018-02-15T07:23:30.594Z,100312.02
2018-02-15T07:25:58.156Z,100309.91
2018-02-15T07:28:25.718Z,100318.00
2018-02-15T07:30:53.347Z,100325.66
2018-02-15T07:33:20.922Z,100324.42
2018-02-15T07:35:48.604Z,100328.16
2018-02-15T07:38:16.182Z,100329.30
2018-02-15T07:40:43.822Z,100335.69
2018-02-15T07:43:11.393Z,100340.05
2018-02-15T07:45:38.959Z,100341.60
2018-02-15T07:48:06.574Z,100345.59
2018-02-15T07:50:34.235Z,100345.67
2018-02-15T07:53:01.908Z,100344.75
2018-02-15T07:55:29.575Z,100346.29
2018-02-15T07:57:57.248Z,100351.02
2018-02-15T08:00:24.831Z,100355.84
2018-02-15T08:02:52.458Z,100354.13
2018-02-15T08:05:20.099Z,100362.82
2018-02-15T08:07:47.669Z,100368.86
2018-02-15T08:10:15.294Z,100370.61
2018-02-15T08:12:42.918Z,100369.32
2018-02-15T08:15:10.491Z,100370.59
2018-02-15T08:17:38.090Z,100371.72
2018-02-15T08:20:05.663Z,100376.33
2018-02-15T08:22:33.252Z,100379.14
2018-02-15T08:25:00.832Z,100382.94
2018-02-15T08:27:28.469Z,100380.69
2018-02-15T08:29:56.095Z,100384.19
2018-02-15T08:32:23.701Z,100391.03
2018-02-15T08:34:51.291Z,100383.64
2018-02-15T08:37:18.853Z,100382.02
2018-02-15T08:39:46.435Z,100391.60
2018-02-15T08:42:14.006Z,100383.28
2018-02-15T08:44:41.722Z,100390.91
2018-02-15T08:47:09.288Z,100398.00
2018-02-15T08:49:36.868Z,100401.97
2018-02-15T08:52:04.444Z,100399.87
2018-02-15T08:54:32.001Z,100397.61
2018-02-15T08:56:59.573Z,100396.23
2018-02-15T08:59:27.197Z,100399.50
2018-02-15T09:01:54.883Z,100410.24
2018-02-15T09:04:22.507Z,100410.11
2018-02-15T09:06:50.072Z,100409.39
2018-02-15T09:09:17.653Z,100407.05
2018-02-15T09:11:45.269Z,100403.16
2018-02-15T09:14:12.921Z,100407.45
2018-02-15T09:16:40.546Z,100412.12
2018-02-15T09:19:08.176Z,100419.52
2018-02-15T09:21:35.803Z,100426.45
2018-02-15T09:24:03.437Z,100430.11
2018-02-15T09:26:31.069Z,100434.81
2018-02-15T09:28:58.693Z,100434.70
2018-02-15T09:31:26.334Z,100432.94
2018-02-15T09:33:53.897Z,100432.98
2018-02-15T09:36:21.522Z,100431.70
2018-02-15T09:38:49.094Z,100425.60
2018-02-15T09:41:16.722Z,100426.64
2018-02-15T09:43:44.304Z,100428.34
2018-02-15T09:46:11.865Z,100427.92
2018-02-15T09:48:39.474Z,100426.55
2018-02-15T09:51:07.037Z,100425.67
2018-02-15T09:53:34.602Z,100427.72
2018-02-15T09:56:02.214Z,100429.99
2018-02-15T09:58:29.782Z,100425.41
2018-02-15T10:00:57.358Z,100421.98
2018-02-15T10:03:24.986Z,100425.31
2018-02-15T10:05:52.549Z,100412.60
2018-02-15T10:08:20.156Z,100421.03
2018-02-15T10:10:47.783Z,100412.69
2018-02-15T10:13:15.422Z,100417.07
2018-02-15T10:15:42.986Z,100417.48
2018-02-15T10:18:10.685Z,100412.98
2018-02-15T10:20:38.308Z,100410.31
2018-02-15T10:23:05.858Z,100412.96
2018-02-15T10:25:33.490Z,100419.13
2018-02-15T10:28:01.122Z,100426.19
2018-02-15T10:30:28.816Z,100414.94
2018-02-15T10:32:56.386Z,100412.93
2018-02-15T10:35:23.961Z,100407.80
2018-02-15T10:37:51.539Z,100418.73
2018-02-15T10:40:19.103Z,100413.72
2018-02-15T10:42:46.728Z,100411.59
2018-02-15T10:45:14.337Z,100410.92
2018-02-15T10:47:41.908Z,100411.33
2018-02-15T10:50:09.490Z,100405.98
2018-02-15T10:52:37.098Z,100404.58
2018-02-15T10:55:04.724Z,100402.61
2018-02-15T10:57:32.350Z,100403.30
2018-02-15T10:59:59.926Z,100408.06
2018-02-15T11:02:27.541Z,100404.23
2018-02-15T11:05:00.618Z,100406.41
2018-02-15T11:07:34.950Z,100402.83
2018-02-15T11:10:02.538Z,100411.61
2018-02-15T11:12:30.235Z,100409.52
2018-02-15T11:14:57.798Z,100412.41
2018-02-15T11:17:25.363Z,100404.62
2018-02-15T11:19:52.945Z,100402.76
2018-02-15T11:22:20.546Z,100410.14
2018-02-15T11:24:48.182Z,100413.42
2018-02-15T11:27:15.797Z,100412.80
2018-02-15T11:29:43.420Z,100412.67
2018-02-15T11:32:11.055Z,100409.82
2018-02-15T11:34:38.640Z,100404.11
2018-02-15T11:37:06.226Z,100407.11
2018-02-15T11:39:33.859Z,100409.78
2018-02-15T11:42:01.441Z,100415.70
2018-02-15T11:44:29.067Z,100418.02
2018-02-15T11:46:56.707Z,100409.91
2018-02-15T11:49:24.292Z,100411.48
2018-02-15T11:51:51.867Z,100407.14
2018-02-15T11:54:19.503Z,100404.78
2018-02-15T11:56:47.076Z,100404.17
2018-02-15T11:59:14.724Z,100405.45
2018-02-15T12:01:42.300Z,100406.02
2018-02-15T12:04:09.933Z,100412.27
2018-02-15T12:06:37.505Z,100409.50
2018-02-15T12:09:05.188Z,100410.07
2018-02-15T12:11:32.746Z,100410.33
2018-02-15T12:14:00.311Z,100410.13
2018-02-15T12:16:27.945Z,100415.86
2018-02-15T12:18:55.574Z,100415.50
2018-02-15T12:21:23.270Z,100426.53
2018-02-15T12:23:50.903Z,100424.35
2018-02-15T12:26:18.525Z,100422.38
2018-02-15T12:28:46.173Z,100425.61
2018-02-15T12:31:13.747Z,100429.25
2018-02-15T12:33:41.323Z,100421.13
2018-02-15T12:36:08.951Z,100428.48
2018-02-15T12:38:36.576Z,100421.36
2018-02-15T12:41:04.124Z,100421.62
2018-02-15T12:43:31.674Z,100423.30
2018-02-15T12:45:59.307Z,100427.31
2018-02-15T12:48:26.934Z,100426.94
2018-02-15T12:50:54.505Z,100435.28
2018-02-15T12:53:22.122Z,100432.61
2018-02-15T12:55:49.754Z,100433.70
2018-02-15T12:58:17.389Z,100444.44
2018-02-15T13:00:44.949Z,100445.02
2018-02-15T13:03:12.524Z,100445.73
2018-02-15T13:05:40.158Z,100447.64
2018-02-15T13:08:07.795Z,100446.06
2018-02-15T13:10:35.366Z,100448.91
2018-02-15T13:13:14.542Z,100452.30
2018-02-15T13:15:53.760Z,100446.22
2018-02-15T13:18:21.349Z,100442.30
2018-02-15T13:20:48.917Z,100446.08
2018-02-15T13:23:16.599Z,100446.84
2018-02-15T13:25:44.162Z,100446.28
2018-02-15T13:31:15.892Z,100450.64
2018-02-15T13:33:43.512Z,100451.08
2018-02-15T13:36:11.073Z,100452.00
2018-02-15T13:38:38.637Z,100449.05
2018-02-15T13:41:06.265Z,100445.18
2018-02-15T13:43:33.835Z,100452.84
2018-02-15T13:46:01.473Z,100448.91
2018-02-15T13:48:29.052Z,100456.81
2018-02-15T13:50:56.749Z,100454.79
2018-02-15T13:53:24.314Z,100461.34
2018-02-15T13:55:51.882Z,100464.08
2018-02-15T13:58:19.543Z,100462.12
2018-02-15T14:00:47.105Z,100459.45
2018-02-15T14:03:14.749Z,100458.14
2018-02-15T14:05:42.393Z,100458.39
2018-02-15T14:08:10.087Z,100459.23
2018-02-15T14:10:37.655Z,100462.48
2018-02-15T14:13:05.232Z,100473.09
2018-02-15T14:15:32.817Z,100469.77
2018-02-15T14:18:00.390Z,100464.22
2018-02-15T14:20:27.976Z,100466.58
2018-02-15T14:22:55.549Z,100472.70
2018-02-15T14:25:23.170Z,100470.62
2018-02-15T14:27:50.749Z,100479.70
2018-02-15T14:30:18.378Z,100483.03
2018-02-15T14:32:45.952Z,100480.03
2018-02-15T14:35:13.570Z,100491.20
2018-02-15T14:37:41.144Z,100486.16
2018-02-15T14:40:08.765Z,100487.45
2018-02-15T14:42:36.391Z,100488.72
2018-02-15T14:45:04.033Z,100492.70
2018-02-15T14:47:31.669Z,100501.31
2018-02-15T14:49:59.306Z,100497.13
2018-02-15T14:52:26.874Z,100491.13
2018-02-15T14:54:54.523Z,100494.99
2018-02-15T14:57:22.155Z,100498.46
2018-02-15T14:59:49.779Z,100504.14
2018-02-15T15:02:17.350Z,100505.47
2018-02-15T15:04:44.918Z,100509.16
2018-02-15T15:07:12.554Z,100509.91
2018-02-15T15:09:40.197Z,100510.61
2018-02-15T15:12:07.846Z,100523.41
2018-02-15T15:14:35.427Z,100521.30
2018-02-15T15:17:03.054Z,100526.73
2018-02-15T15:19:30.623Z,100530.97
2018-02-15T15:21:58.199Z,100531.30
2018-02-15T15:24:25.783Z,100538.34
2018-02-15T15:26:53.358Z,100538.47
2018-02-15T15:29:20.996Z,100535.73
2018-02-15T15:31:48.582Z,100545.92
2018-02-15T15:34:16.206Z,100544.37
2018-02-15T15:36:43.851Z,100543.19
2018-02-15T15:39:11.491Z,100549.58
2018-02-15T15:41:39.123Z,100558.64
2018-02-15T15:44:06.779Z,100564.62
2018-02-15T15:46:34.423Z,100563.84
2018-02-15T15:49:02.005Z,100565.47
2018-02-15T15:51:29.665Z,100570.39
2018-02-15T15:53:57.287Z,100575.70
2018-02-15T15:56:24.946Z,100573.36
2018-02-15T15:58:52.521Z,100574.86
2018-02-15T16:01:20.090Z,100584.58
2018-02-15T16:03:47.674Z,100594.70
2018-02-15T16:06:15.245Z,100594.13
2018-02-15T16:08:42.908Z,100602.52
2018-02-15T16:11:10.505Z,100603.93
2018-02-15T16:13:38.147Z,100607.32
2018-02-15T16:16:05.730Z,100617.88
2018-02-15T16:18:33.311Z,100620.94
2018-02-15T16:21:00.982Z,100622.59
2018-02-15T16:23:28.558Z,100627.02
2018-02-15T16:25:56.305Z,100632.19
2018-02-15T16:28:23.886Z,100644.93
2018-02-15T16:30:52.363Z,100645.38
2018-02-15T16:33:19.962Z,100641.86
2018-02-15T16:35:47.544Z,100639.37
2018-02-15T16:38:15.127Z,100645.31
2018-02-15T16:40:42.772Z,100648.23
2018-02-15T16:43:10.465Z,100644.70
2018-02-15T16:45:38.116Z,100648.89
2018-02-15T16:48:05.679Z,100644.78
2018-02-15T16:50:33.337Z,100647.92
2018-02-15T16:53:00.895Z,100647.74
2018-02-15T16:55:28.474Z,100642.69
2018-02-15T16:57:56.119Z,100657.13
2018-02-15T17:00:23.773Z,100653.67
2018-02-15T17:02:51.414Z,100652.87
2018-02-15T17:05:19.083Z,100652.63
2018-02-15T17:07:47.486Z,100653.59
2018-02-15T17:10:15.067Z,100661.14
2018-02-15T17:12:43.550Z,100654.09
2018-02-15T17:15:11.129Z,100655.09
2018-02-15T17:17:38.765Z,100662.99
2018-02-15T17:20:06.418Z,100670.67
2018-02-15T17:22:34.062Z,100672.07
2018-02-15T17:25:01.652Z,100681.63
2018-02-15T17:27:29.234Z,100684.86
2018-02-15T17:29:56.828Z,100683.89
2018-02-15T17:32:24.411Z,100689.16
2018-02-15T17:34:52.051Z,100694.90
2018-02-15T17:37:19.627Z,100697.91
2018-02-15T17:39:47.281Z,100701.86
2018-02-15T17:42:14.878Z,100707.52
2018-02-15T17:44:42.466Z,100708.94
2018-02-15T17:47:10.139Z,100708.63
2018-02-15T17:49:37.730Z,100713.62
2018-02-15T17:52:05.366Z,100712.41
2018-02-15T17:54:33.038Z,100704.15
2018-02-15T17:57:00.626Z,100708.00
2018-02-15T17:59:28.248Z,100716.55
2018-02-15T18:01:55.847Z,100718.00
2018-02-15T18:04:23.469Z,100712.87
2018-02-15T18:06:51.056Z,100721.25
2018-02-15T18:09:18.730Z,100724.97
2018-02-15T18:11:46.633Z,100726.16
2018-02-15T18:14:14.242Z,100726.80
2018-02-15T18:16:41.906Z,100718.28
2018-02-15T18:19:09.507Z,100730.57
2018-02-15T18:21:37.121Z,100737.56
2018-02-15T18:24:04.726Z,100728.34
2018-02-15T18:26:32.449Z,100730.92
2018-02-15T18:29:00.327Z,100728.31
2018-02-15T18:31:27.991Z,100732.30
2018-02-15T18:33:55.638Z,100737.63
2018-02-15T18:36:23.222Z,100731.77
2018-02-15T18:38:50.935Z,100736.61
2018-02-15T18:41:18.586Z,100740.98
2018-02-15T18:43:46.223Z,100734.91
2018-02-15T18:46:13.806Z,100743.27
2018-02-15T18:48:41.466Z,100738.11
2018-02-15T18:51:09.107Z,100748.27
2018-02-15T18:53:36.683Z,100748.11
2018-02-15T18:56:04.336Z,100749.77
2018-02-15T18:58:31.979Z,100751.87
2018-02-15T19:00:59.639Z,100753.20
2018-02-15T19:03:27.320Z,100751.81
2018-02-15T19:05:54.893Z,100757.77
2018-02-15T19:08:22.475Z,100754.03
2018-02-15T19:10:50.054Z,100762.22
2018-02-15T19:13:17.649Z,100758.76
2018-02-15T19:15:45.286Z,100759.70
2018-02-15T19:18:12.934Z,100765.50
2018-02-15T19:20:40.506Z,100763.88
2018-02-15T19:23:08.100Z,100762.19
2018-02-15T19:25:35.748Z,100762.12
2018-02-15T19:28:03.443Z,100766.97
2018-02-15T19:30:31.020Z,100763.75
2018-02-15T19:32:58.599Z,100758.94
2018-02-15T19:35:26.253Z,100748.03
2018-02-15T19:37:53.905Z,100753.05
2018-02-15T19:40:21.611Z,100752.32
2018-02-15T19:45:30.946Z,100755.39
2018-02-15T19:47:58.527Z,100756.80
2018-02-15T19:50:26.106Z,100761.48
2018-02-15T19:52:53.746Z,100768.30
2018-02-15T19:55:21.388Z,100776.46
2018-02-15T19:57:49.026Z,100770.40
2018-02-15T20:00:16.599Z,100774.17
2018-02-15T20:02:44.178Z,100775.33
2018-02-15T20:05:11.783Z,100776.72
2018-02-15T20:07:39.422Z,100779.22
2018-02-15T20:10:07.065Z,100781.94
2018-02-15T20:12:34.671Z,100786.84
2018-02-15T20:15:02.661Z,100790.55
2018-02-15T20:17:30.246Z,100794.77
2018-02-15T20:20:03.238Z,100788.63
2018-02-15T20:22:30.874Z,100793.78
2018-02-15T20:24:58.518Z,100786.50
2018-02-15T20:27:31.810Z,100791.83
2018-02-15T20:29:59.387Z,100797.84
2018-02-15T20:32:27.050Z,100787.83
2018-02-15T20:34:54.690Z,100791.69
2018-02-15T20:37:22.302Z,100789.73
2018-02-15T20:39:55.461Z,100791.00
2018-02-15T20:42:23.068Z,100799.67
2018-02-15T20:44:50.772Z,100796.36
2018-02-15T20:47:18.354Z,100794.34
2018-02-15T20:49:51.558Z,100800.89
2018-02-15T20:52:24.627Z,100804.38
2018-02-15T20:54:57.708Z,100808.38
2018-02-15T20:57:25.272Z,100812.43
2018-02-15T20:59:52.867Z,100801.23
2018-02-15T21:02:20.438Z,100811.04
2018-02-15T21:04:48.038Z,100820.63
2018-02-15T21:07:15.681Z,100828.13
2018-02-15T21:09:43.253Z,100830.54
2018-02-15T21:12:10.896Z,100826.32
2018-02-15T21:14:38.471Z,100833.52
2018-02-15T21:17:06.078Z,100834.05
2018-02-15T21:19:33.705Z,100838.52
2018-02-15T21:22:01.340Z,100832.50
2018-02-15T21:24:30.039Z,100839.78
2018-02-15T21:26:57.624Z,100848.31
2018-02-15T21:29:25.175Z,100850.53
2018-02-15T21:31:52.856Z,100851.86
2018-02-15T21:34:20.487Z,100852.34
2018-02-15T21:36:48.063Z,100853.39
2018-02-15T21:39:15.705Z,100853.55
2018-02-15T21:41:43.301Z,100862.94
2018-02-15T21:44:10.952Z,100862.78
2018-02-15T21:46:38.592Z,100860.45
2018-02-15T21:49:06.164Z,100862.47
2018-02-15T21:51:33.746Z,100866.63
2018-02-15T21:54:01.322Z,100862.94
2018-02-15T21:56:28.964Z,100867.63
2018-02-15T21:58:56.542Z,100869.98
2018-02-15T22:01:24.122Z,100868.22
2018-02-15T22:03:51.788Z,100867.42
2018-02-15T22:06:19.430Z,100874.09
2018-02-15T22:08:47.062Z,100872.27
2018-02-15T22:11:14.637Z,100869.07
2018-02-15T22:13:42.214Z,100865.02
2018-02-15T22:16:09.809Z,100864.22
2018-02-15T22:18:37.425Z,100866.80
2018-02-15T22:21:05.050Z,100862.35
2018-02-15T22:23:32.722Z,100864.28
2018-02-15T22:26:00.290Z,100860.16
2018-02-15T22:28:27.865Z,100859.14
2018-02-15T22:30:55.506Z,100864.05
2018-02-15T22:33:23.139Z,100862.00
2018-02-15T22:35:50.717Z,100864.61
2018-02-15T22:38:18.328Z,100871.08
2018-02-15T22:40:45.908Z,100874.34
2018-02-15T22:43:13.469Z,100881.31
2018-02-15T22:45:41.178Z,100884.52
2018-02-15T22:48:08.816Z,100878.00
2018-02-15T22:50:36.443Z,100881.31
2018-02-15T22:53:04.028Z,100876.84
2018-02-15T22:55:31.665Z,100880.95
2018-02-15T22:57:59.387Z,100878.97
2018-02-15T23:00:27.063Z,100874.43
2018-02-15T23:02:54.727Z,100877.15
2018-02-15T23:05:22.331Z,100875.22
2018-02-15T23:07:49.910Z,100879.95
2018-02-15T23:10:17.530Z,100879.80
2018-02-15T23:12:45.103Z,100875.27
2018-02-15T23:15:12.731Z,100885.14
2018-02-15T23:17:40.690Z,100886.05
2018-02-15T23:20:08.281Z,100887.08
2018-02-15T23:22:35.905Z,100886.66
2018-02-15T23:25:03.478Z,100891.73
2018-02-15T23:27:31.046Z,100890.45
2018-02-15T23:29:58.691Z,100901.05
2018-02-15T23:32:26.253Z,100897.06
2018-02-15T23:34:53.898Z,100894.82
2018-02-15T23:37:21.466Z,100890.56
2018-02-15T23:39:49.058Z,100889.48
2018-02-15T23:42:16.706Z,100891.10
2018-02-15T23:44:44.299Z,100898.02
2018-02-15T23:47:11.982Z,100895.52
2018-02-15T23:49:39.550Z,100899.73
2018-02-15T23:52:07.123Z,100898.70
2018-02-15T23:54:34.706Z,100900.23
2018-02-15T23:57:02.335Z,100901.56
2018-02-15T23:59:29.969Z,100897.42
